Terri L. Brusco — WDC3034 — position and weather

sailwx.info

Track history (hours):
 
Tides and Currents Weather Stations Pressure Air Temp Water Temp Dewpoint Dewpoint Depression Visibility Wind Speed Wind Dir Waves Ship Positions

Terri L. Brusco

Owner: Brusco Tug & Barge, Inc., Longview, WA. More information available from US FCC via Universal Licensing System and Coast Guard Vessel Documentation Center.

Last reported at 2017-Dec-06 21:50 UTC. Time now 2017-Dec-12 21:53 UTC.
Position N 38°02' W 121°35'.

Length 21 m; draft 4 m.

Type: Tow > 200 m length. MMSI: 367001830.

Date/timePositionNaut miles runAvg speedWind from/ knotsBaromVisibWave heightAir tempDewpointWater temp
2017-Dec-06 21:50N 38°02' W 121°35'  
2017-Dec-03 05:47N 38°03' W 122°11'311.3
2017-Dec-03 05:30N 38°04' W 122°15'611.4
2017-Dec-03 05:00N 38°02' W 122°22'612.0
2017-Dec-03 04:31N 37°57' W 122°26'612.0
2017-Dec-03 04:01N 37°51' W 122°23'5 9.2
2017-Dec-03 03:30N 37°48' W 122°20'3 5.9
2017-Dec-03 03:00N 37°47' W 122°16'1 2.5
2017-Dec-03 02:30N 37°46' W 122°15'2 3.1
2017-Dec-03 02:00N 37°47' W 122°16'2 3.3
2017-Dec-03 01:30N 37°48' W 122°18'3 6.6
2017-Dec-03 01:00N 37°49' W 122°22'3 7.0
2017-Dec-03 00:31N 37°52' W 122°24'5 9.2
2017-Dec-03 00:00N 37°57' W 122°26'5 9.3
2017-Dec-02 23:29N 38°01' W 122°23'5 9.6
2017-Dec-02 22:57N 38°03' W 122°17'4 9.4
2017-Dec-02 22:30N 38°03' W 122°12'13 2.5
2017-Dec-02 17:12N 38°03' W 121°55'310.5
2017-Dec-02 16:57N 38°04' W 121°58'0 0.0
2017-Dec-02 16:30N 38°04' W 121°58'0 0.0
2017-Dec-02 16:00N 38°04' W 121°58'0 0.0
2017-Dec-02 15:17N 38°04' W 121°58'0 0.0
2017-Dec-02 15:00N 38°04' W 121°58'0 0.0
2017-Dec-02 14:27N 38°04' W 121°58'0 0.0
2017-Dec-02 14:00N 38°04' W 121°58'0 0.0
2017-Dec-02 13:30N 38°04' W 121°58'0 0.0
2017-Dec-02 13:00N 38°04' W 121°58'0 0.0
2017-Dec-02 12:28N 38°04' W 121°58'0 0.0
2017-Dec-02 11:56N 38°04' W 121°58'0 0.0
2017-Dec-02 11:30N 38°04' W 121°58'0 0.0
2017-Dec-02 10:48N 38°04' W 121°58'0 0.0
2017-Dec-02 10:29N 38°04' W 121°58'0 0.0
2017-Dec-02 09:57N 38°04' W 121°58'0 0.0
2017-Dec-02 09:28N 38°04' W 121°58'0 0.0
2017-Dec-02 08:20N 38°04' W 121°58'0 0.0
2017-Dec-02 08:00N 38°04' W 121°58'0 0.0
2017-Dec-02 07:29N 38°04' W 121°58'0 0.0
2017-Dec-02 06:08N 38°04' W 121°58'0 0.0
2017-Dec-02 06:00N 38°04' W 121°58'0 0.0
2017-Dec-02 05:17N 38°04' W 121°58'0 0.0
2017-Dec-02 04:59N 38°04' W 121°58'0 0.0
2017-Dec-02 04:23N 38°04' W 121°58'0 0.0
2017-Dec-02 04:00N 38°04' W 121°58'0 0.0
2017-Dec-02 03:30N 38°04' W 121°58'0 0.0
2017-Dec-02 02:57N 38°04' W 121°58'0 0.0
2017-Dec-02 02:30N 38°04' W 121°58'0 0.0
2017-Dec-02 02:00N 38°04' W 121°58'0 0.0
2017-Dec-02 01:29N 38°04' W 121°58'0 0.0
2017-Dec-02 01:00N 38°04' W 121°58'2 3.5
2017-Dec-02 00:20N 38°03' W 121°55'  
Track history (hours):
 
Tides and Currents Weather Stations Pressure Air Temp Water Temp Dewpoint Dewpoint Depression Visibility Wind Speed Wind Dir Waves Ship Positions

Terri L. Brusco

Owner: Brusco Tug & Barge, Inc., Longview, WA. More information available from US FCC via Universal Licensing System and Coast Guard Vessel Documentation Center.

Last reported at 2017-Dec-06 21:50 UTC. Time now 2017-Dec-12 21:53 UTC.
Position N 38°02' W 121°35'.

Length 21 m; draft 4 m.

Type: Tow > 200 m length. MMSI: 367001830.

Date/timePositionNaut miles runAvg speedWind from/ knotsBaromVisibWave heightAir tempDewpointWater temp
2017-Dec-06 21:50N 38°02' W 121°35'  
2017-Dec-03 05:47N 38°03' W 122°11'311.3
2017-Dec-03 05:30N 38°04' W 122°15'611.4
2017-Dec-03 05:00N 38°02' W 122°22'612.0
2017-Dec-03 04:31N 37°57' W 122°26'612.0
2017-Dec-03 04:01N 37°51' W 122°23'5 9.2
2017-Dec-03 03:30N 37°48' W 122°20'3 5.9
2017-Dec-03 03:00N 37°47' W 122°16'1 2.5
2017-Dec-03 02:30N 37°46' W 122°15'2 3.1
2017-Dec-03 02:00N 37°47' W 122°16'2 3.3
2017-Dec-03 01:30N 37°48' W 122°18'3 6.6
2017-Dec-03 01:00N 37°49' W 122°22'3 7.0
2017-Dec-03 00:31N 37°52' W 122°24'5 9.2
2017-Dec-03 00:00N 37°57' W 122°26'5 9.3
2017-Dec-02 23:29N 38°01' W 122°23'5 9.6
2017-Dec-02 22:57N 38°03' W 122°17'4 9.4
2017-Dec-02 22:30N 38°03' W 122°12'13 2.5
2017-Dec-02 17:12N 38°03' W 121°55'310.5
2017-Dec-02 16:57N 38°04' W 121°58'0 0.0
2017-Dec-02 16:30N 38°04' W 121°58'0 0.0
2017-Dec-02 16:00N 38°04' W 121°58'0 0.0
2017-Dec-02 15:17N 38°04' W 121°58'0 0.0
2017-Dec-02 15:00N 38°04' W 121°58'0 0.0
2017-Dec-02 14:27N 38°04' W 121°58'0 0.0
2017-Dec-02 14:00N 38°04' W 121°58'0 0.0
2017-Dec-02 13:30N 38°04' W 121°58'0 0.0
2017-Dec-02 13:00N 38°04' W 121°58'0 0.0
2017-Dec-02 12:28N 38°04' W 121°58'0 0.0
2017-Dec-02 11:56N 38°04' W 121°58'0 0.0
2017-Dec-02 11:30N 38°04' W 121°58'0 0.0
2017-Dec-02 10:48N 38°04' W 121°58'0 0.0
2017-Dec-02 10:29N 38°04' W 121°58'0 0.0
2017-Dec-02 09:57N 38°04' W 121°58'0 0.0
2017-Dec-02 09:28N 38°04' W 121°58'0 0.0
2017-Dec-02 08:20N 38°04' W 121°58'0 0.0
2017-Dec-02 08:00N 38°04' W 121°58'0 0.0
2017-Dec-02 07:29N 38°04' W 121°58'0 0.0
2017-Dec-02 06:08N 38°04' W 121°58'0 0.0
2017-Dec-02 06:00N 38°04' W 121°58'0 0.0
2017-Dec-02 05:17N 38°04' W 121°58'0 0.0
2017-Dec-02 04:59N 38°04' W 121°58'0 0.0
2017-Dec-02 04:23N 38°04' W 121°58'0 0.0
2017-Dec-02 04:00N 38°04' W 121°58'0 0.0
2017-Dec-02 03:30N 38°04' W 121°58'0 0.0
2017-Dec-02 02:57N 38°04' W 121°58'0 0.0
2017-Dec-02 02:30N 38°04' W 121°58'0 0.0
2017-Dec-02 02:00N 38°04' W 121°58'0 0.0
2017-Dec-02 01:29N 38°04' W 121°58'0 0.0
2017-Dec-02 01:00N 38°04' W 121°58'2 3.5
2017-Dec-02 00:20N 38°03' W 121°55'  

Dump ship's entire track history